Time;durP1;ratioP1;P1;durP2;ratioP2;P2;SDS_P1;SDS_P2;PMS_P1;PMS_P2;Temp;Humidity;BMP_temperature;BMP_pressure;BME280_temperature;BME280_humidity;BME280_pressure;Samples;Min_cycle;Max_cycle;Signal;HPM_P1;HPM_P2
2020/12/07 00:00:24;;;;;;;6.23;5.23;;;;;;;5.04;98.71;97554.28;5013804;28;20053;-84
2020/12/07 00:03:26;;;;;;;10.17;7.00;;;;;;;4.96;96.53;97558.78;5014384;28;20429;-84
2020/12/07 00:06:27;;;;;;;7.70;4.87;;;;;;;4.80;96.40;97553.59;5025659;28;20041;-83
2020/12/07 00:09:32;;;;;;;6.90;5.50;;;;;;;4.29;96.76;97535.50;5015431;28;20045;-83
2020/12/07 00:12:33;;;;;;;8.93;6.27;;;;;;;4.22;98.34;97533.72;5013189;28;20036;-82
2020/12/07 00:15:39;;;;;;;7.13;5.53;;;;;;;3.86;98.97;97531.50;5032169;28;20044;-83
2020/12/07 00:18:48;;;;;;;9.63;6.57;;;;;;;4.05;100.00;97529.47;5022353;28;20040;-84
2020/12/07 00:22:01;;;;;;;8.30;6.60;;;;;;;4.05;100.00;97540.84;5024742;28;20044;-83
2020/12/07 00:25:03;;;;;;;10.40;6.90;;;;;;;3.62;100.00;97535.00;5032714;28;20049;-82
2020/12/07 00:28:06;;;;;;;6.63;4.80;;;;;;;3.56;100.00;97524.28;5031548;28;20534;-82
2020/12/07 00:31:07;;;;;;;6.50;4.88;;;;;;;3.66;100.00;97518.88;5020349;28;20499;-83
2020/12/07 00:34:08;;;;;;;6.50;4.20;;;;;;;3.54;100.00;97521.00;5045519;28;20055;-82
2020/12/07 00:37:10;;;;;;;7.07;5.40;;;;;;;3.44;100.00;97528.25;5020445;28;20063;-83
2020/12/07 00:40:12;;;;;;;8.70;4.80;;;;;;;3.64;100.00;97516.38;5030987;28;20048;-82
2020/12/07 00:43:11;;;;;;;8.10;5.77;;;;;;;3.80;100.00;97516.34;5019889;28;20044;-81
2020/12/07 00:46:16;;;;;;;11.53;6.27;;;;;;;3.75;100.00;97515.22;5033196;28;20048;-84
2020/12/07 00:49:16;;;;;;;;;;;;;;;3.54;100.00;97527.06;5044160;28;20060;-82
2020/12/07 00:52:16;;;;;;;14.50;6.03;;;;;;;3.44;100.00;97536.97;5045139;28;19921;-82
2020/12/07 00:55:16;;;;;;;;;;;;;;;3.41;100.00;97541.75;5033463;28;20044;-83
2020/12/07 00:58:17;;;;;;;8.27;6.37;;;;;;;3.82;100.00;97553.09;5044822;28;19916;-82
2020/12/07 01:01:17;;;;;;;6.63;5.35;;;;;;;4.34;100.00;97546.38;5020128;28;20063;-83
2020/12/07 01:04:17;;;;;;;9.47;5.83;;;;;;;3.95;100.00;97561.31;5019760;28;20041;-83
2020/12/07 01:07:17;;;;;;;9.80;5.77;;;;;;;3.83;100.00;97578.47;5019977;28;20491;-84
2020/12/07 01:10:22;;;;;;;7.23;4.80;;;;;;;3.74;100.00;97564.47;5020308;28;20057;-81
2020/12/07 01:13:20;;;;;;;17.23;4.70;;;;;;;3.58;100.00;97562.66;5031203;28;20056;-82
2020/12/07 01:16:25;;;;;;;6.90;5.03;;;;;;;3.71;100.00;97550.78;5023007;28;20043;-82
2020/12/07 01:19:32;;;;;;;5.70;4.17;;;;;;;3.66;100.00;97556.56;5060075;28;20039;-83
2020/12/07 01:22:33;;;;;;;5.37;4.20;;;;;;;3.83;100.00;97557.38;5059497;28;20040;-82
2020/12/07 01:25:33;;;;;;;6.33;4.50;;;;;;;3.95;100.00;97556.84;5022338;28;20043;-82
2020/12/07 01:28:32;;;;;;;7.87;4.93;;;;;;;3.91;100.00;97566.09;5047592;28;20052;-82
2020/12/07 01:31:32;;;;;;;4.50;3.67;;;;;;;3.69;100.00;97581.75;5022327;28;20059;-82
2020/12/07 01:34:32;;;;;;;;;;;;;;;3.30;100.00;97582.41;5048126;28;20506;-83
2020/12/07 01:37:33;;;;;;;5.13;3.33;;;;;;;3.30;100.00;97607.94;5047595;28;19916;-82
2020/12/07 01:40:37;;;;;;;5.93;3.78;;;;;;;3.48;100.00;97619.97;5022570;28;20414;-82
2020/12/07 01:43:42;;;;;;;8.20;6.60;;;;;;;3.79;100.00;97629.84;5024078;28;20037;-83
2020/12/07 01:46:48;;;;;;;14.20;9.67;;;;;;;3.93;100.00;97611.56;5035657;28;20043;-82
2020/12/07 01:49:52;;;;;;;17.17;10.17;;;;;;;4.00;100.00;97617.00;5047740;28;20055;-81
2020/12/07 01:52:57;;;;;;;16.77;10.57;;;;;;;3.98;100.00;97611.09;5035524;28;20048;-83
2020/12/07 01:55:58;;;;;;;16.33;10.13;;;;;;;4.05;99.40;97606.78;5021488;28;20048;-82
2020/12/07 01:59:04;;;;;;;10.07;6.60;;;;;;;3.35;100.00;97621.44;5047946;28;20487;-82
2020/12/07 02:02:20;;;;;;;10.60;7.83;;;;;;;3.19;100.00;97633.56;5048989;28;20048;-82
2020/12/07 02:05:24;;;;;;;17.13;11.20;;;;;;;3.48;100.00;97627.88;5023752;28;20044;-82
2020/12/07 02:08:25;;;;;;;13.33;9.60;;;;;;;3.87;100.00;97630.69;5046965;28;20513;-82
2020/12/07 02:11:28;;;;;;;13.07;8.90;;;;;;;4.17;100.00;97617.81;5061376;28;20400;-83
2020/12/07 02:14:29;;;;;;;13.03;9.03;;;;;;;4.00;100.00;97611.75;5018554;28;20036;-84
2020/12/07 02:17:31;;;;;;;12.17;8.73;;;;;;;3.91;100.00;97607.44;5031865;28;20052;-83
2020/12/07 02:20:31;;;;;;;11.93;7.82;;;;;;;3.71;100.00;97608.78;5031000;28;20037;-82
2020/12/07 02:23:36;;;;;;;12.23;8.23;;;;;;;3.81;100.00;97604.16;5020496;28;20070;-83
2020/12/07 02:26:46;;;;;;;15.03;10.07;;;;;;;3.87;100.00;97604.34;5021309;28;20059;-82
2020/12/07 02:29:45;;;;;;;9.90;6.83;;;;;;;3.36;100.00;97602.81;5031504;28;20048;-82
2020/12/07 02:32:47;;;;;;;13.67;9.07;;;;;;;3.36;100.00;97600.19;5029619;28;20407;-84
2020/12/07 02:35:57;;;;;;;19.65;11.02;;;;;;;3.21;100.00;97614.97;5034154;28;20044;-82
2020/12/07 02:38:57;;;;;;;13.17;8.03;;;;;;;3.28;100.00;97618.63;5034484;28;20036;-82
2020/12/07 02:42:08;;;;;;;;;;;;;;;2.95;100.00;97616.91;5026148;28;20040;-82
2020/12/07 02:45:14;;;;;;;21.23;12.47;;;;;;;3.23;100.00;97613.00;5047223;28;19920;-82
2020/12/07 02:48:19;;;;;;;15.18;9.52;;;;;;;3.13;100.00;97596.53;5036489;28;20068;-84
2020/12/07 02:51:26;;;;;;;16.37;11.00;;;;;;;3.14;100.00;97595.56;5047258;28;20051;-82
2020/12/07 02:54:25;;;;;;;7.67;6.17;;;;;;;2.93;100.00;97597.81;5034148;28;20055;-82
2020/12/07 02:57:28;;;;;;;8.93;5.43;;;;;;;2.76;100.00;97628.50;5021760;28;20475;-84
2020/12/07 03:00:31;;;;;;;164.50;23.57;;;;;;;2.95;100.00;97648.50;5034570;28;20055;-82
2020/12/07 03:03:32;;;;;;;405.10;39.03;;;;;;;3.41;100.00;97665.56;5046827;28;20048;-83
2020/12/07 03:06:35;;;;;;;149.63;23.35;;;;;;;3.15;100.00;97678.84;5034622;28;20037;-83
2020/12/07 03:09:37;;;;;;;298.13;34.53;;;;;;;3.42;100.00;97675.94;5034741;28;20417;-81
2020/12/07 03:12:37;;;;;;;121.90;24.13;;;;;;;3.53;100.00;97690.63;5045970;28;20044;-81
2020/12/07 03:15:41;;;;;;;141.17;24.40;;;;;;;3.65;100.00;97684.06;5058192;28;20049;-84
2020/12/07 03:18:44;;;;;;;339.80;37.33;;;;;;;3.97;100.00;97664.81;5034409;28;20051;-83
2020/12/07 03:21:47;;;;;;;438.33;43.07;;;;;;;3.98;100.00;97662.00;5046935;28;20383;-83
2020/12/07 03:24:46;;;;;;;433.57;44.70;;;;;;;3.98;100.00;97667.28;5046049;28;20048;-83
2020/12/07 03:27:46;;;;;;;203.60;30.60;;;;;;;3.97;100.00;97668.25;5033888;28;20483;-83
2020/12/07 03:30:47;;;;;;;229.57;24.23;;;;;;;4.06;100.00;97663.81;5033616;28;20055;-85
2020/12/07 03:33:47;;;;;;;107.47;21.43;;;;;;;4.05;100.00;97658.69;5046227;28;20045;-84
2020/12/07 03:36:50;;;;;;;312.10;32.23;;;;;;;3.83;100.00;97652.28;5033810;28;20154;-84
2020/12/07 03:39:57;;;;;;;93.63;20.57;;;;;;;3.81;100.00;97641.06;5058583;28;20487;-82
2020/12/07 03:43:05;;;;;;;97.63;18.17;;;;;;;3.62;100.00;97647.50;5045418;28;20559;-82
2020/12/07 03:46:09;;;;;;;174.53;25.27;;;;;;;3.83;100.00;97639.91;5034539;28;20044;-82
2020/12/07 03:49:15;;;;;;;163.17;25.53;;;;;;;3.91;100.00;97639.91;5044895;28;20056;-83
2020/12/07 03:52:19;;;;;;;208.27;26.17;;;;;;;4.00;100.00;97627.56;5022172;28;20044;-83
2020/12/07 03:55:18;;;;;;;100.00;19.13;;;;;;;3.86;100.00;97620.31;5032973;28;20064;-83
2020/12/07 03:58:20;;;;;;;69.10;18.93;;;;;;;3.88;100.00;97618.34;5058055;28;20052;-82
2020/12/07 04:01:20;;;;;;;111.80;20.73;;;;;;;3.87;100.00;97624.59;5057837;28;20484;-81
2020/12/07 04:04:27;;;;;;;121.18;22.05;;;;;;;3.86;100.00;97625.59;5032905;28;20294;-81
2020/12/07 04:07:28;;;;;;;197.83;23.43;;;;;;;3.76;100.00;97631.03;5033894;28;20044;-84
2020/12/07 04:10:29;;;;;;;47.73;17.57;;;;;;;3.81;100.00;97638.44;5033355;28;20045;-83
2020/12/07 04:13:29;;;;;;;;;;;;;;;3.78;100.00;97622.94;5034125;28;20492;-82
2020/12/07 04:16:30;;;;;;;28.93;17.57;;;;;;;3.84;100.00;97625.75;5048960;28;19926;-81
2020/12/07 04:19:30;;;;;;;;;;;;;;;3.78;100.00;97644.03;5036579;28;20051;-81
2020/12/07 04:22:30;;;;;;;24.70;16.60;;;;;;;3.89;100.00;97646.34;5048580;28;20286;-82
2020/12/07 04:25:30;;;;;;;18.47;13.30;;;;;;;3.66;100.00;97629.56;5022993;28;20525;-82
2020/12/07 04:28:31;;;;;;;17.40;12.07;;;;;;;3.79;100.00;97630.69;5048211;28;20043;-83
2020/12/07 04:31:31;;;;;;;14.10;9.13;;;;;;;3.89;100.00;97626.09;5023277;28;20036;-83
2020/12/07 04:34:31;;;;;;;16.30;11.13;;;;;;;4.02;100.00;97622.91;5036648;28;20297;-83
2020/12/07 04:37:30;;;;;;;15.40;10.87;;;;;;;4.12;100.00;97625.41;5048101;28;20067;-83
2020/12/07 04:40:31;;;;;;;16.43;11.27;;;;;;;4.37;100.00;97628.84;5035522;28;20051;-85
2020/12/07 04:43:35;;;;;;;22.93;14.80;;;;;;;4.44;99.07;97640.34;5061034;28;20048;-84
2020/12/07 04:46:35;;;;;;;17.00;10.77;;;;;;;3.91;100.00;97666.28;5035124;28;20297;-83
2020/12/07 04:49:39;;;;;;;13.90;10.00;;;;;;;4.12;100.00;97657.06;5035719;28;20368;-82
2020/12/07 04:52:41;;;;;;;16.73;11.47;;;;;;;4.14;100.00;97671.69;5035797;28;20046;-83
2020/12/07 04:55:41;;;;;;;15.47;10.43;;;;;;;3.91;100.00;97681.25;5034855;28;20036;-83
2020/12/07 04:58:45;;;;;;;11.63;8.55;;;;;;;4.10;100.00;97677.50;5035673;28;20043;-83
2020/12/07 05:01:46;;;;;;;17.57;11.80;;;;;;;4.27;100.00;97698.41;5047809;28;20044;-84
2020/12/07 05:04:46;;;;;;;11.87;9.03;;;;;;;4.15;100.00;97697.09;5022981;28;20036;-82
2020/12/07 05:07:52;;;;;;;12.23;8.73;;;;;;;4.25;100.00;97697.75;5047862;28;20040;-82
2020/12/07 05:10:54;;;;;;;10.63;8.27;;;;;;;4.21;100.00;97703.53;5058556;28;20047;-82
2020/12/07 05:14:02;;;;;;;15.83;10.73;;;;;;;4.21;100.00;97703.53;5019752;28;20055;-82
2020/12/07 05:17:03;;;;;;;15.37;10.33;;;;;;;4.20;100.00;97707.16;5033056;28;20070;-83
2020/12/07 05:20:05;;;;;;;15.47;10.30;;;;;;;4.16;100.00;97698.75;5031853;28;20033;-83
2020/12/07 05:23:05;;;;;;;9.87;7.40;;;;;;;4.35;100.00;97694.94;5044332;28;20029;-83
2020/12/07 05:26:04;;;;;;;;;;;;;;;4.15;100.00;97701.53;5032081;28;20048;-82
2020/12/07 05:32:37;;;;;;;26.20;15.93;;;;;;;3.99;98.73;97708.47;5043953;28;20032;-82
2020/12/07 05:35:41;;;;;;;25.13;15.57;;;;;;;3.73;99.74;97704.31;5043492;28;20041;-84
2020/12/07 05:38:42;;;;;;;17.87;12.33;;;;;;;3.28;100.00;97712.63;5044088;28;20507;-83
2020/12/07 05:41:48;;;;;;;13.98;9.35;;;;;;;3.25;100.00;97701.41;5056000;28;20049;-83
2020/12/07 05:44:56;;;;;;;21.07;13.30;;;;;;;3.24;100.00;97709.47;5020805;28;20033;-82
2020/12/07 05:48:13;;;;;;;18.03;11.30;;;;;;;3.33;100.00;97695.34;5046039;28;20055;-81
2020/12/07 05:51:15;;;;;;;13.90;9.10;;;;;;;3.66;100.00;97695.44;5031339;28;20037;-81
2020/12/07 05:54:16;;;;;;;;;;;;;;;3.51;100.00;97682.06;5032322;28;20492;-83
2020/12/07 05:57:22;;;;;;;10.13;7.17;;;;;;;3.87;100.00;97690.50;5043951;28;19924;-83
2020/12/07 06:00:26;;;;;;;14.33;8.80;;;;;;;3.78;100.00;97691.47;5019845;28;20039;-82
2020/12/07 06:03:26;;;;;;;21.73;13.53;;;;;;;3.69;100.00;97692.44;5019154;28;20048;-82
2020/12/07 06:06:34;;;;;;;20.50;11.60;;;;;;;3.97;100.00;97691.16;5031339;28;20037;-81
2020/12/07 06:09:41;;;;;;;14.37;9.37;;;;;;;3.92;100.00;97689.00;5031451;28;20037;-83
2020/12/07 06:12:49;;;;;;;13.27;6.57;;;;;;;3.98;100.00;97692.81;5033728;28;20048;-83
2020/12/07 06:15:51;;;;;;;11.13;5.77;;;;;;;4.18;100.00;97688.84;5015069;28;20059;-82
2020/12/07 06:18:59;;;;;;;6.65;3.45;;;;;;;4.87;98.23;97689.22;5002759;28;20049;-81
2020/12/07 06:22:01;;;;;;;9.03;4.30;;;;;;;5.02;95.80;97692.81;5014458;28;20415;-81
2020/12/07 06:25:01;;;;;;;5.80;3.55;;;;;;;5.19;95.12;97704.13;5015754;28;20037;-81
2020/12/07 06:28:06;;;;;;;4.33;3.30;;;;;;;5.09;92.78;97713.06;5002589;28;20044;-83
2020/12/07 06:31:15;;;;;;;5.07;3.20;;;;;;;5.52;92.65;97710.91;5028046;28;20488;-83
2020/12/07 06:34:21;;;;;;;4.93;3.00;;;;;;;5.65;90.95;97708.53;5003794;28;20037;-83
2020/12/07 06:37:28;;;;;;;5.77;2.40;;;;;;;5.85;89.71;97713.34;5016027;28;20037;-84
2020/12/07 06:40:37;;;;;;;3.53;2.43;;;;;;;6.11;88.37;97719.16;5016090;28;20045;-84
2020/12/07 06:43:38;;;;;;;4.40;2.00;;;;;;;6.12;88.67;97707.56;5002495;28;20053;-83
2020/12/07 06:46:49;;;;;;;14.67;2.40;;;;;;;6.08;89.03;97711.56;5027094;28;20052;-82
2020/12/07 06:49:53;;;;;;;5.40;1.10;;;;;;;6.46;85.88;97728.31;5003963;28;20059;-82
2020/12/07 06:52:54;;;;;;;1.50;0.60;;;;;;;6.54;86.59;97722.91;5002316;28;20048;-81
2020/12/07 06:55:54;;;;;;;1.50;1.00;;;;;;;6.41;86.06;97738.59;5015318;28;20052;-81
2020/12/07 06:58:54;;;;;;;1.57;0.80;;;;;;;6.41;86.33;97736.75;5027187;28;20045;-82
2020/12/07 07:01:56;;;;;;;1.23;0.80;;;;;;;6.47;85.49;97733.41;5002366;28;20511;-81
2020/12/07 07:04:58;;;;;;;2.40;0.80;;;;;;;6.12;87.36;97736.69;5015306;28;20404;-81
2020/12/07 07:07:59;;;;;;;4.70;1.00;;;;;;;5.95;88.76;97737.78;5026681;28;20041;-83
2020/12/07 07:11:08;;;;;;;6.40;0.88;;;;;;;5.87;89.39;97751.88;5014513;28;20033;-83
2020/12/07 07:14:08;;;;;;;1.77;0.60;;;;;;;5.73;91.44;97777.22;5019861;28;20044;-83
2020/12/07 07:17:09;;;;;;;4.10;2.33;;;;;;;5.35;91.05;97775.41;5022275;28;20041;-83
2020/12/07 07:20:13;;;;;;;7.83;2.90;;;;;;;5.29;92.72;97768.19;5034314;28;20064;-83
2020/12/07 07:23:16;;;;;;;4.53;2.30;;;;;;;5.41;91.99;97787.94;5021285;28;20043;-82
2020/12/07 07:26:23;;;;;;;5.73;2.30;;;;;;;5.57;91.78;97793.16;5033699;28;20116;-81
2020/12/07 07:29:25;;;;;;;6.40;2.30;;;;;;;5.67;92.39;97782.38;5024131;28;20048;-81
2020/12/07 07:32:25;;;;;;;6.33;2.00;;;;;;;5.75;92.25;97785.81;5033303;28;20518;-81
2020/12/07 07:35:33;;;;;;;4.18;1.58;;;;;;;5.81;92.24;97800.16;4993461;28;20416;-81
2020/12/07 07:38:35;;;;;;;6.37;2.77;;;;;;;5.80;93.43;97803.78;5006019;28;20527;-81
2020/12/07 07:41:36;;;;;;;4.37;2.30;;;;;;;5.88;93.57;97795.88;4988947;28;20049;-81
2020/12/07 07:44:38;;;;;;;5.63;2.40;;;;;;;6.41;94.59;97797.66;4990394;28;20049;-82
2020/12/07 07:47:48;;;;;;;4.70;2.58;;;;;;;7.29;93.29;97809.47;4989423;28;20045;-84
2020/12/07 07:51:04;;;;;;;5.57;1.77;;;;;;;6.84;90.25;97835.06;4992724;28;20402;-82
2020/12/07 07:54:43;;;;;;;5.50;2.22;;;;;;;6.41;92.72;97847.97;5006165;28;20423;-83
2020/12/07 08:16:59;;;;;;;5.20;2.20;;;;;;;6.87;92.06;97846.13;5004310;28;20033;-82
2020/12/07 08:20:08;;;;;;;5.30;2.38;;;;;;;6.86;92.23;97835.69;5027257;28;20055;-82
2020/12/07 08:23:09;;;;;;;3.38;2.38;;;;;;;6.75;93.68;97846.72;5033371;28;20131;-82
2020/12/07 08:26:20;;;;;;;5.60;2.92;;;;;;;6.86;93.90;97841.00;5033013;28;20052;-82
2020/12/07 08:29:21;;;;;;;5.07;3.20;;;;;;;6.99;93.08;97820.00;5022017;28;20059;-83
2020/12/07 08:32:24;;;;;;;9.18;2.40;;;;;;;7.19;93.13;97817.69;5033188;28;20037;-84
2020/12/07 08:35:27;;;;;;;5.72;2.72;;;;;;;7.08;91.22;97808.31;5019516;28;20055;-85
2020/12/07 08:38:36;;;;;;;4.07;3.30;;;;;;;7.35;92.23;97817.50;5021646;28;20411;-84
2020/12/07 08:41:39;;;;;;;9.05;3.08;;;;;;;7.68;93.04;97848.94;5032517;28;20045;-84
2020/12/07 08:44:44;;;;;;;3.80;2.75;;;;;;;7.72;93.37;97845.75;5032826;28;20064;-84
2020/12/07 08:47:45;;;;;;;6.03;3.47;;;;;;;7.66;92.95;97845.69;5020958;28;20063;-84
2020/12/07 08:50:46;;;;;;;5.68;3.40;;;;;;;7.65;91.61;97852.81;5020457;28;20040;-84
2020/12/07 08:53:48;;;;;;;6.40;3.00;;;;;;;7.90;93.31;97854.16;5021047;28;20055;-84
2020/12/07 08:56:52;;;;;;;4.57;3.35;;;;;;;7.89;92.30;97864.97;5032582;28;20033;-84
2020/12/07 08:59:53;;;;;;;8.02;3.47;;;;;;;7.76;90.89;97875.41;5020813;28;20041;-84
2020/12/07 09:02:57;;;;;;;5.22;3.05;;;;;;;7.54;92.69;97891.22;5034015;28;20052;-84
2020/12/07 09:05:59;;;;;;;5.10;3.25;;;;;;;7.54;92.63;97906.31;5019468;28;20400;-83
2020/12/07 09:09:01;;;;;;;3.67;3.03;;;;;;;7.56;93.68;97909.59;5031917;28;20032;-83
2020/12/07 09:12:07;;;;;;;6.45;3.05;;;;;;;7.60;93.77;97900.28;5033448;28;20048;-83
2020/12/07 09:15:08;;;;;;;8.88;4.10;;;;;;;6.99;94.60;97896.84;5022724;28;20053;-84
2020/12/07 09:18:09;;;;;;;;;;;;;;;6.84;94.20;97894.16;5012060;28;20040;-84
2020/12/07 09:21:14;;;;;;;5.70;3.65;;;;;;;6.87;93.37;97898.28;5035775;28;19924;-85
2020/12/07 09:24:19;;;;;;;7.85;3.60;;;;;;;7.32;92.43;97920.44;5012618;28;20049;-83
2020/12/07 09:27:23;;;;;;;3.92;2.65;;;;;;;7.76;87.00;97915.19;5012633;28;20033;-84
2020/12/07 09:30:25;;;;;;;3.45;2.40;;;;;;;8.10;88.11;97914.63;5012381;28;20479;-84
2020/12/07 09:33:25;;;;;;;5.20;2.70;;;;;;;8.23;88.77;97918.28;5011767;28;20391;-84
2020/12/07 09:36:27;;;;;;;11.43;5.80;;;;;;;8.13;87.98;97915.09;5011945;28;20347;-84
2020/12/07 09:39:27;;;;;;;7.43;4.03;;;;;;;8.15;90.15;97913.06;5011853;28;20053;-84
2020/12/07 09:42:30;;;;;;;8.32;4.05;;;;;;;8.09;89.95;97918.28;5011721;28;20523;-84
2020/12/07 09:45:32;;;;;;;5.53;2.90;;;;;;;8.15;91.44;97909.56;5012458;28;20053;-84
2020/12/07 09:48:33;;;;;;;5.22;3.28;;;;;;;8.37;91.20;97907.88;5015914;28;20041;-84
2020/12/07 09:51:40;;;;;;;3.97;3.20;;;;;;;8.62;92.26;97917.94;5017442;28;20058;-84
2020/12/07 09:55:34;;;;;;;6.93;3.92;;;;;;;8.76;91.77;97912.75;4976456;28;20050;-84
2020/12/07 09:58:38;;;;;;;8.02;3.63;;;;;;;8.91;91.38;97917.03;4984003;28;20061;-84
2020/12/07 10:01:45;;;;;;;7.20;3.60;;;;;;;8.75;90.76;97924.41;4984968;28;20401;-84
2020/12/07 10:04:49;;;;;;;5.05;2.55;;;;;;;9.26;90.59;97919.78;4972296;28;20034;-85
2020/12/07 10:07:53;;;;;;;5.88;1.80;;;;;;;9.34;85.67;97915.16;4984639;28;20542;-86
2020/12/07 10:10:53;;;;;;;2.35;1.42;;;;;;;9.58;82.95;97903.25;4971249;28;20045;-86
2020/12/07 10:13:55;;;;;;;4.80;2.10;;;;;;;10.22;83.98;97896.91;4974855;28;20054;-85
2020/12/07 10:16:56;;;;;;;;;;;;;;;10.16;82.19;97895.78;5007650;28;20037;-85
2020/12/07 10:20:00;;;;;;;3.03;1.20;;;;;;;10.77;81.27;97893.16;5016181;28;19924;-86
2020/12/07 10:23:04;;;;;;;4.30;1.20;;;;;;;11.45;80.61;97897.31;5020310;28;20054;-85
2020/12/07 10:26:08;;;;;;;4.28;1.38;;;;;;;11.07;76.55;97893.63;4991209;28;20041;-86
2020/12/07 10:29:12;;;;;;;2.75;0.80;;;;;;;11.18;75.43;97893.03;4991295;28;20079;-86
2020/12/07 10:32:19;;;;;;;1.92;0.60;;;;;;;10.84;76.40;97891.34;4991982;28;20431;-85
2020/12/07 10:35:21;;;;;;;2.83;0.68;;;;;;;10.67;72.22;97898.06;5002753;28;20053;-85
2020/12/07 10:38:23;;;;;;;5.28;0.90;;;;;;;10.51;74.81;97883.25;4990317;28;20050;-84
2020/12/07 10:41:32;;;;;;;3.83;0.75;;;;;;;10.37;76.11;97886.91;4990724;28;20432;-85
2020/12/07 10:44:35;;;;;;;4.00;0.75;;;;;;;10.70;77.32;97890.50;4984070;28;20058;-86
2020/12/07 10:47:35;;;;;;;3.97;1.23;;;;;;;11.40;74.11;97894.47;4991296;28;20057;-87
2020/12/07 10:50:37;;;;;;;2.03;1.10;;;;;;;11.63;76.56;97888.69;4991421;28;20420;-86
2020/12/07 10:53:42;;;;;;;1.95;1.23;;;;;;;11.52;77.82;97892.81;4994846;28;20057;-85
2020/12/07 10:56:47;;;;;;;3.13;1.20;;;;;;;10.98;76.84;97886.84;5002647;28;20053;-85
2020/12/07 10:59:49;;;;;;;3.33;1.02;;;;;;;10.68;74.83;97897.03;5006495;28;20040;-85
2020/12/07 11:02:51;;;;;;;2.90;0.60;;;;;;;10.56;76.73;97891.47;4977367;28;20096;-85
2020/12/07 11:05:50;;;;;;;;;;;;;;;10.19;78.29;97891.97;5019583;28;20055;-85
2020/12/07 11:12:03;;;;;;;2.45;0.50;;;;;;;10.59;75.62;97896.41;4989699;28;20046;-85
2020/12/07 11:15:11;;;;;;;1.50;0.40;;;;;;;11.09;78.98;97905.72;4980379;28;20481;-86
2020/12/07 11:18:13;;;;;;;1.35;0.55;;;;;;;11.25;76.98;97901.84;5017940;28;20405;-86
2020/12/07 11:21:15;;;;;;;;;;;;;;;11.20;75.44;97889.13;4977508;28;20046;-86
2020/12/07 11:24:15;;;;;;;2.55;0.73;;;;;;;11.47;79.54;97889.09;5001125;28;19917;-87
2020/12/07 11:27:16;;;;;;;3.28;0.35;;;;;;;11.66;74.32;97892.81;4977652;28;20048;-87
2020/12/07 11:30:19;;;;;;;3.08;1.00;;;;;;;11.58;72.43;97886.63;4976686;28;20401;-87
2020/12/07 11:33:20;;;;;;;2.00;0.98;;;;;;;11.21;71.27;97903.28;4977052;28;20054;-86
2020/12/07 11:36:21;;;;;;;1.63;1.10;;;;;;;11.01;71.89;97905.94;4977015;28;20488;-86
2020/12/07 11:45:32;;;;;;;1.55;0.98;;;;;;;9.69;72.07;97926.66;4978076;28;20396;-86
2020/12/07 11:48:30;;;;;;;5.75;0.85;;;;;;;9.28;74.45;97939.88;4976523;28;20141;-86
2020/12/07 11:51:30;;;;;;;4.60;1.20;;;;;;;9.38;72.37;97940.38;5038615;28;20064;-85
2020/12/07 11:54:29;;;;;;;5.90;4.25;;;;;;;8.31;83.42;97941.25;5033117;28;20036;-86
2020/12/07 11:57:28;;;;;;;10.88;5.60;;;;;;;8.21;83.94;97930.09;5032597;28;20044;-86
2020/12/07 12:00:28;;;;;;;8.57;4.85;;;;;;;8.12;83.77;97933.88;5033087;28;20039;-87
2020/12/07 12:03:29;;;;;;;8.25;4.82;;;;;;;7.82;85.45;97947.13;5033378;28;20052;-86
2020/12/07 12:06:35;;;;;;;9.55;6.13;;;;;;;7.82;85.94;97962.22;5021228;28;20056;-87
2020/12/07 12:09:37;;;;;;;9.90;5.75;;;;;;;7.76;87.92;97976.22;5022102;28;20487;-87
2020/12/07 12:12:37;;;;;;;10.63;6.50;;;;;;;7.74;89.41;97973.75;5022070;28;20052;-87
2020/12/07 12:15:37;;;;;;;7.65;5.10;;;;;;;7.77;88.63;97960.13;5024918;28;20064;-86
2020/12/07 12:18:37;;;;;;;9.25;5.22;;;;;;;7.72;88.46;97959.84;5013084;28;20511;-87
2020/12/07 12:21:40;;;;;;;10.13;5.20;;;;;;;7.79;87.78;97958.09;5013966;28;20049;-87
2020/12/07 12:24:39;;;;;;;10.73;5.43;;;;;;;7.85;89.49;97957.38;5025362;28;20506;-87
2020/12/07 12:27:40;;;;;;;8.38;4.75;;;;;;;8.03;87.62;97964.16;5012729;28;20056;-86
2020/12/07 12:30:42;;;;;;;7.63;4.75;;;;;;;8.10;88.22;97965.06;5013567;28;20373;-86
2020/12/07 12:33:43;;;;;;;6.83;4.97;;;;;;;8.05;88.91;97959.47;5025689;28;20044;-87
2020/12/07 12:36:43;;;;;;;16.02;8.07;;;;;;;7.68;90.46;97982.41;5012549;28;20295;-86
2020/12/07 12:39:44;;;;;;;12.25;5.35;;;;;;;7.44;90.52;97978.16;5013295;28;20056;-87
2020/12/07 12:42:44;;;;;;;13.98;6.05;;;;;;;7.79;90.91;97952.78;5012987;28;20037;-87
2020/12/07 12:45:42;;;;;;;8.65;4.80;;;;;;;8.15;89.13;97946.75;5011882;28;20052;-87
2020/12/07 12:48:42;;;;;;;9.45;5.15;;;;;;;8.21;89.90;97943.38;5024473;28;20053;-87
2020/12/07 12:51:48;;;;;;;8.70;4.45;;;;;;;8.87;86.41;97947.66;5025049;28;20048;-89
2020/12/07 12:54:48;;;;;;;7.38;4.00;;;;;;;9.00;84.83;97958.41;5024351;28;20053;-87
2020/12/07 12:57:49;;;;;;;7.13;3.70;;;;;;;8.83;85.91;97964.19;5012892;28;20044;-88
2020/12/07 13:00:49;;;;;;;;;;;;;;;9.02;85.35;97963.56;5014216;28;20068;-88
2020/12/07 13:03:50;;;;;;;4.30;2.72;;;;;;;9.01;85.17;97964.56;5025032;28;19917;-87
2020/12/07 13:06:50;;;;;;;4.82;2.85;;;;;;;9.28;84.71;97969.13;5012801;28;20060;-88
2020/12/07 13:09:50;;;;;;;8.48;2.67;;;;;;;9.54;83.86;97976.53;5012525;28;20114;-87
2020/12/07 13:12:52;;;;;;;6.45;2.80;;;;;;;9.88;84.35;97975.75;5012834;28;20036;-87
2020/12/07 13:18:57;;;;;;;5.55;2.90;;;;;;;9.56;83.12;97966.47;5031287;28;20044;-87
2020/12/07 13:31:10;;;;;;;8.23;3.15;;;;;;;9.78;81.69;97962.78;5019731;28;20384;-87
2020/12/07 13:34:10;;;;;;;3.67;2.60;;;;;;;10.00;81.74;97966.22;5032039;28;20056;-89
2020/12/07 13:37:10;;;;;;;7.28;2.80;;;;;;;10.29;82.27;97969.66;5030732;28;20043;-89
2020/12/07 13:40:09;;;;;;;4.95;3.20;;;;;;;10.52;81.88;97964.84;5031650;28;20037;-88
2020/12/07 13:43:10;;;;;;;7.10;3.42;;;;;;;10.56;80.92;97967.94;5032091;28;20049;-87
2020/12/07 13:46:11;;;;;;;3.83;2.50;;;;;;;10.24;82.53;97970.28;5020108;28;20049;-87
2020/12/07 13:49:11;;;;;;;9.25;2.97;;;;;;;10.14;80.55;97983.91;5019320;28;20552;-87
2020/12/07 13:52:13;;;;;;;4.63;2.90;;;;;;;10.05;81.39;97974.41;5042932;28;20055;-87
2020/12/07 13:55:14;;;;;;;7.05;2.95;;;;;;;9.86;81.74;97975.13;5030988;28;20407;-87
2020/12/07 13:58:12;;;;;;;7.72;3.60;;;;;;;9.64;83.19;97981.50;5031472;28;20052;-87
2020/12/07 14:01:11;;;;;;;5.10;3.53;;;;;;;9.41;84.19;97985.22;5031549;28;20036;-86
2020/12/07 14:07:15;;;;;;;8.13;3.58;;;;;;;9.62;84.65;97994.19;5020297;28;20492;-86
2020/12/07 14:10:14;;;;;;;5.30;2.92;;;;;;;10.04;85.51;97983.41;5018443;28;20036;-87
2020/12/07 14:13:12;;;;;;;4.60;2.65;;;;;;;10.90;81.31;97983.88;5019160;28;20049;-87
2020/12/07 14:16:18;;;;;;;5.22;2.80;;;;;;;11.23;76.24;97991.94;5027633;28;20045;-87
2020/12/07 14:19:23;;;;;;;5.28;3.35;;;;;;;10.15;78.35;97990.03;5023844;28;20041;-87
2020/12/07 14:22:36;;;;;;;5.20;2.90;;;;;;;9.75;79.55;97996.94;5010777;28;20049;-87
2020/12/07 14:41:10;;;;;;;8.15;3.58;;;;;;;8.75;83.71;98028.06;5014454;28;20053;-87
2020/12/07 14:44:12;;;;;;;5.72;3.33;;;;;;;8.62;84.74;98048.13;5015463;28;20040;-87
2020/12/07 14:47:12;;;;;;;6.63;3.40;;;;;;;8.64;86.75;98053.28;5026531;28;20072;-86
2020/12/07 14:56:26;;;;;;;8.85;4.95;;;;;;;8.31;90.02;98074.03;5014385;28;20056;-86
2020/12/07 15:05:34;;;;;;;14.10;7.53;;;;;;;8.18;88.22;98084.47;5013926;28;20052;-85
2020/12/07 15:11:55;;;;;;;10.50;5.38;;;;;;;8.48;89.37;98080.03;5014490;28;20492;-85
2020/12/07 15:14:55;;;;;;;12.32;5.50;;;;;;;8.54;89.22;98064.19;5022151;28;20052;-85
2020/12/07 15:17:55;;;;;;;9.93;3.47;;;;;;;8.30;88.34;98067.06;5022086;28;20041;-86
2020/12/07 15:20:55;;;;;;;8.52;3.20;;;;;;;8.24;86.56;98055.38;5022376;28;20102;-85
2020/12/07 15:23:54;;;;;;;6.05;3.60;;;;;;;7.99;86.25;98064.56;5034159;28;20391;-86
2020/12/07 15:26:55;;;;;;;10.07;4.70;;;;;;;7.86;87.88;98067.00;5034028;28;20514;-86
2020/12/07 15:29:53;;;;;;;9.80;5.25;;;;;;;7.70;90.48;98057.34;5021126;28;20032;-86
2020/12/07 15:32:54;;;;;;;11.90;4.97;;;;;;;7.40;91.20;98059.09;5021769;28;20032;-86
2020/12/07 15:35:53;;;;;;;9.60;4.82;;;;;;;6.73;90.42;98057.97;5021152;28;20055;-86
2020/12/07 15:38:55;;;;;;;10.50;6.07;;;;;;;7.20;93.01;98058.69;5033645;28;20411;-86